sensor_id;sensor_type;location;lat;lon;timestamp;temperature;humidity
74540;SHT31;66042;51.090;-115.340;2023-06-10T00:02:04;24.94;28.80
74540;SHT31;66042;51.090;-115.340;2023-06-10T00:04:31;24.93;28.83
74540;SHT31;66042;51.090;-115.340;2023-06-10T00:06:58;24.87;28.82
74540;SHT31;66042;51.090;-115.340;2023-06-10T00:09:25;24.75;28.91
74540;SHT31;66042;51.090;-115.340;2023-06-10T00:11:54;24.66;28.95
74540;SHT31;66042;51.090;-115.340;2023-06-10T00:14:20;24.58;29.01
74540;SHT31;66042;51.090;-115.340;2023-06-10T00:16:47;24.50;29.12
74540;SHT31;66042;51.090;-115.340;2023-06-10T00:19:15;24.43;29.19
74540;SHT31;66042;51.090;-115.340;2023-06-10T00:21:44;24.40;29.41
74540;SHT31;66042;51.090;-115.340;2023-06-10T00:24:10;24.36;29.40
74540;SHT31;66042;51.090;-115.340;2023-06-10T00:26:41;24.31;29.54
74540;SHT31;66042;51.090;-115.340;2023-06-10T00:29:08;24.27;29.69
74540;SHT31;66042;51.090;-115.340;2023-06-10T00:31:36;24.23;29.86
74540;SHT31;66042;51.090;-115.340;2023-06-10T00:34:03;24.17;29.90
74540;SHT31;66042;51.090;-115.340;2023-06-10T00:36:31;24.12;30.18
74540;SHT31;66042;51.090;-115.340;2023-06-10T00:38:58;24.04;30.70
74540;SHT31;66042;51.090;-115.340;2023-06-10T00:41:25;23.97;31.23
74540;SHT31;66042;51.090;-115.340;2023-06-10T00:43:55;23.87;31.73
74540;SHT31;66042;51.090;-115.340;2023-06-10T00:46:22;23.80;33.09
74540;SHT31;66042;51.090;-115.340;2023-06-10T00:48:52;23.74;34.19
74540;SHT31;66042;51.090;-115.340;2023-06-10T00:51:19;23.64;34.89
74540;SHT31;66042;51.090;-115.340;2023-06-10T00:53:46;23.55;34.96
74540;SHT31;66042;51.090;-115.340;2023-06-10T00:56:14;23.46;34.87
74540;SHT31;66042;51.090;-115.340;2023-06-10T00:58:41;23.37;34.96
74540;SHT31;66042;51.090;-115.340;2023-06-10T01:01:08;23.31;35.18
74540;SHT31;66042;51.090;-115.340;2023-06-10T01:03:37;23.27;35.33
74540;SHT31;66042;51.090;-115.340;2023-06-10T01:09:18;23.20;35.88
74540;SHT31;66042;51.090;-115.340;2023-06-10T01:14:35;23.10;36.56
74540;SHT31;66042;51.090;-115.340;2023-06-10T01:17:04;23.00;37.17
74540;SHT31;66042;51.090;-115.340;2023-06-10T01:19:34;22.91;38.79
74540;SHT31;66042;51.090;-115.340;2023-06-10T01:22:02;22.84;39.86
74540;SHT31;66042;51.090;-115.340;2023-06-10T01:24:30;22.74;41.17
74540;SHT31;66042;51.090;-115.340;2023-06-10T01:27:01;22.65;42.40
74540;SHT31;66042;51.090;-115.340;2023-06-10T01:29:41;22.56;43.91
74540;SHT31;66042;51.090;-115.340;2023-06-10T01:32:22;22.44;46.17
74540;SHT31;66042;51.090;-115.340;2023-06-10T01:35:05;22.33;46.30
74540;SHT31;66042;51.090;-115.340;2023-06-10T01:37:35;22.23;47.91
74540;SHT31;66042;51.090;-115.340;2023-06-10T01:40:05;22.12;47.79
74540;SHT31;66042;51.090;-115.340;2023-06-10T01:42:33;22.03;48.15
74540;SHT31;66042;51.090;-115.340;2023-06-10T01:45:00;21.93;48.43
74540;SHT31;66042;51.090;-115.340;2023-06-10T01:47:27;21.85;48.34
74540;SHT31;66042;51.090;-115.340;2023-06-10T01:49:54;21.80;47.63
74540;SHT31;66042;51.090;-115.340;2023-06-10T01:52:21;21.75;46.99
74540;SHT31;66042;51.090;-115.340;2023-06-10T01:54:48;21.68;45.81
74540;SHT31;66042;51.090;-115.340;2023-06-10T01:57:15;21.62;45.34
74540;SHT31;66042;51.090;-115.340;2023-06-10T01:59:43;21.54;44.04
74540;SHT31;66042;51.090;-115.340;2023-06-10T02:02:11;21.46;43.24
74540;SHT31;66042;51.090;-115.340;2023-06-10T02:04:38;21.41;43.32
74540;SHT31;66042;51.090;-115.340;2023-06-10T02:07:05;21.39;43.62
74540;SHT31;66042;51.090;-115.340;2023-06-10T02:09:32;21.37;43.26
74540;SHT31;66042;51.090;-115.340;2023-06-10T02:12:02;21.35;43.59
74540;SHT31;66042;51.090;-115.340;2023-06-10T02:14:31;21.31;43.25
74540;SHT31;66042;51.090;-115.340;2023-06-10T02:16:58;21.28;42.72
74540;SHT31;66042;51.090;-115.340;2023-06-10T02:19:26;21.28;42.20
74540;SHT31;66042;51.090;-115.340;2023-06-10T02:21:53;21.24;42.17
74540;SHT31;66042;51.090;-115.340;2023-06-10T02:24:20;21.24;41.91
74540;SHT31;66042;51.090;-115.340;2023-06-10T02:26:47;21.22;41.09
74540;SHT31;66042;51.090;-115.340;2023-06-10T02:29:17;21.17;40.52
74540;SHT31;66042;51.090;-115.340;2023-06-10T02:31:44;21.15;40.67
74540;SHT31;66042;51.090;-115.340;2023-06-10T02:34:11;21.13;41.53
74540;SHT31;66042;51.090;-115.340;2023-06-10T02:36:39;21.11;41.86
74540;SHT31;66042;51.090;-115.340;2023-06-10T02:39:06;21.09;41.55
74540;SHT31;66042;51.090;-115.340;2023-06-10T02:41:33;21.07;41.96
74540;SHT31;66042;51.090;-115.340;2023-06-10T02:44:00;21.04;42.79
74540;SHT31;66042;51.090;-115.340;2023-06-10T02:46:27;21.00;43.50
74540;SHT31;66042;51.090;-115.340;2023-06-10T02:48:55;20.95;43.64
74540;SHT31;66042;51.090;-115.340;2023-06-10T02:51:22;20.90;43.36
74540;SHT31;66042;51.090;-115.340;2023-06-10T02:53:49;20.86;43.33
74540;SHT31;66042;51.090;-115.340;2023-06-10T02:56:16;20.82;43.87
74540;SHT31;66042;51.090;-115.340;2023-06-10T02:58:44;20.77;44.16
74540;SHT31;66042;51.090;-115.340;2023-06-10T03:01:12;20.73;45.12
74540;SHT31;66042;51.090;-115.340;2023-06-10T03:03:39;20.66;45.57
74540;SHT31;66042;51.090;-115.340;2023-06-10T03:06:09;20.60;45.19
74540;SHT31;66042;51.090;-115.340;2023-06-10T03:08:38;20.56;45.10
74540;SHT31;66042;51.090;-115.340;2023-06-10T03:11:05;20.51;44.32
74540;SHT31;66042;51.090;-115.340;2023-06-10T03:13:33;20.47;44.54
74540;SHT31;66042;51.090;-115.340;2023-06-10T03:16:00;20.43;44.49
74540;SHT31;66042;51.090;-115.340;2023-06-10T03:18:28;20.39;44.21
74540;SHT31;66042;51.090;-115.340;2023-06-10T03:20:56;20.36;43.88
74540;SHT31;66042;51.090;-115.340;2023-06-10T03:23:23;20.32;44.46
74540;SHT31;66042;51.090;-115.340;2023-06-10T03:25:50;20.26;44.60
74540;SHT31;66042;51.090;-115.340;2023-06-10T03:28:18;20.23;44.94
74540;SHT31;66042;51.090;-115.340;2023-06-10T03:30:44;20.20;44.95
74540;SHT31;66042;51.090;-115.340;2023-06-10T03:33:11;20.16;44.85
74540;SHT31;66042;51.090;-115.340;2023-06-10T03:35:39;20.14;44.66
74540;SHT31;66042;51.090;-115.340;2023-06-10T03:38:06;20.13;44.40
74540;SHT31;66042;51.090;-115.340;2023-06-10T03:40:32;20.10;44.40
74540;SHT31;66042;51.090;-115.340;2023-06-10T03:43:00;20.09;44.42
74540;SHT31;66042;51.090;-115.340;2023-06-10T03:45:27;20.07;44.65
74540;SHT31;66042;51.090;-115.340;2023-06-10T03:47:55;20.05;44.80
74540;SHT31;66042;51.090;-115.340;2023-06-10T03:50:22;20.01;45.04
74540;SHT31;66042;51.090;-115.340;2023-06-10T03:52:50;19.97;45.23
74540;SHT31;66042;51.090;-115.340;2023-06-10T03:55:17;19.92;45.34
74540;SHT31;66042;51.090;-115.340;2023-06-10T03:57:47;19.89;45.05
74540;SHT31;66042;51.090;-115.340;2023-06-10T04:00:15;19.83;45.12
74540;SHT31;66042;51.090;-115.340;2023-06-10T04:02:44;19.79;45.07
74540;SHT31;66042;51.090;-115.340;2023-06-10T04:05:12;19.75;45.93
74540;SHT31;66042;51.090;-115.340;2023-06-10T04:07:43;19.71;46.42
74540;SHT31;66042;51.090;-115.340;2023-06-10T04:10:10;19.67;46.72
74540;SHT31;66042;51.090;-115.340;2023-06-10T04:12:37;19.61;47.03
74540;SHT31;66042;51.090;-115.340;2023-06-10T04:15:05;19.58;47.09
74540;SHT31;66042;51.090;-115.340;2023-06-10T04:17:33;19.54;47.23
74540;SHT31;66042;51.090;-115.340;2023-06-10T04:20:01;19.49;47.23
74540;SHT31;66042;51.090;-115.340;2023-06-10T04:22:32;19.45;47.45
74540;SHT31;66042;51.090;-115.340;2023-06-10T04:25:00;19.40;47.57
74540;SHT31;66042;51.090;-115.340;2023-06-10T04:27:27;19.34;47.80
74540;SHT31;66042;51.090;-115.340;2023-06-10T04:29:53;19.30;47.95
74540;SHT31;66042;51.090;-115.340;2023-06-10T04:32:20;19.27;48.01
74540;SHT31;66042;51.090;-115.340;2023-06-10T04:34:48;19.24;48.13
74540;SHT31;66042;51.090;-115.340;2023-06-10T04:37:15;19.20;48.42
74540;SHT31;66042;51.090;-115.340;2023-06-10T04:39:42;19.17;48.53
74540;SHT31;66042;51.090;-115.340;2023-06-10T04:42:09;19.15;48.61
74540;SHT31;66042;51.090;-115.340;2023-06-10T04:44:36;19.12;48.66
74540;SHT31;66042;51.090;-115.340;2023-06-10T04:47:04;19.09;48.86
74540;SHT31;66042;51.090;-115.340;2023-06-10T04:49:33;19.06;49.12
74540;SHT31;66042;51.090;-115.340;2023-06-10T04:52:01;19.01;49.06
74540;SHT31;66042;51.090;-115.340;2023-06-10T04:54:30;18.99;49.11
74540;SHT31;66042;51.090;-115.340;2023-06-10T04:56:57;18.98;49.07
74540;SHT31;66042;51.090;-115.340;2023-06-10T04:59:25;18.97;49.16
74540;SHT31;66042;51.090;-115.340;2023-06-10T05:01:52;18.94;49.10
74540;SHT31;66042;51.090;-115.340;2023-06-10T05:04:20;18.90;49.04
74540;SHT31;66042;51.090;-115.340;2023-06-10T05:06:50;18.87;49.17
74540;SHT31;66042;51.090;-115.340;2023-06-10T05:09:17;18.83;49.27
74540;SHT31;66042;51.090;-115.340;2023-06-10T05:11:44;18.79;49.41
74540;SHT31;66042;51.090;-115.340;2023-06-10T05:14:12;18.76;49.42
74540;SHT31;66042;51.090;-115.340;2023-06-10T05:16:41;18.73;49.56
74540;SHT31;66042;51.090;-115.340;2023-06-10T05:19:08;18.72;49.76
74540;SHT31;66042;51.090;-115.340;2023-06-10T05:21:36;18.69;50.09
74540;SHT31;66042;51.090;-115.340;2023-06-10T05:24:04;18.65;50.26
74540;SHT31;66042;51.090;-115.340;2023-06-10T05:26:31;18.61;50.34
74540;SHT31;66042;51.090;-115.340;2023-06-10T05:29:02;18.59;50.29
74540;SHT31;66042;51.090;-115.340;2023-06-10T05:31:31;18.55;50.29
74540;SHT31;66042;51.090;-115.340;2023-06-10T05:33:58;18.52;50.33
74540;SHT31;66042;51.090;-115.340;2023-06-10T05:36:25;18.49;50.57
74540;SHT31;66042;51.090;-115.340;2023-06-10T05:38:53;18.48;50.64
74540;SHT31;66042;51.090;-115.340;2023-06-10T05:41:20;18.45;50.71
74540;SHT31;66042;51.090;-115.340;2023-06-10T05:43:47;18.43;50.76
74540;SHT31;66042;51.090;-115.340;2023-06-10T05:46:14;18.42;50.79
74540;SHT31;66042;51.090;-115.340;2023-06-10T05:48:41;18.40;50.83
74540;SHT31;66042;51.090;-115.340;2023-06-10T05:51:08;18.37;50.91
74540;SHT31;66042;51.090;-115.340;2023-06-10T05:53:35;18.33;51.06
74540;SHT31;66042;51.090;-115.340;2023-06-10T05:56:03;18.28;51.00
74540;SHT31;66042;51.090;-115.340;2023-06-10T05:58:31;18.28;51.16
74540;SHT31;66042;51.090;-115.340;2023-06-10T06:00:58;18.27;51.13
74540;SHT31;66042;51.090;-115.340;2023-06-10T06:03:25;18.25;51.32
74540;SHT31;66042;51.090;-115.340;2023-06-10T06:05:54;18.22;51.36
74540;SHT31;66042;51.090;-115.340;2023-06-10T06:08:21;18.21;51.32
74540;SHT31;66042;51.090;-115.340;2023-06-10T06:10:49;18.20;51.45
74540;SHT31;66042;51.090;-115.340;2023-06-10T06:13:16;18.19;51.63
74540;SHT31;66042;51.090;-115.340;2023-06-10T06:15:44;18.16;51.63
74540;SHT31;66042;51.090;-115.340;2023-06-10T06:18:11;18.14;51.64
74540;SHT31;66042;51.090;-115.340;2023-06-10T06:20:38;18.09;51.77
74540;SHT31;66042;51.090;-115.340;2023-06-10T06:23:06;18.06;51.81
74540;SHT31;66042;51.090;-115.340;2023-06-10T06:25:35;18.02;51.96
74540;SHT31;66042;51.090;-115.340;2023-06-10T06:28:07;17.99;52.03
74540;SHT31;66042;51.090;-115.340;2023-06-10T06:30:35;17.94;52.12
74540;SHT31;66042;51.090;-115.340;2023-06-10T06:33:02;17.91;52.10
74540;SHT31;66042;51.090;-115.340;2023-06-10T06:35:33;17.88;52.36
74540;SHT31;66042;51.090;-115.340;2023-06-10T06:38:00;17.84;52.45
74540;SHT31;66042;51.090;-115.340;2023-06-10T06:40:27;17.80;52.50
74540;SHT31;66042;51.090;-115.340;2023-06-10T06:42:54;17.78;52.59
74540;SHT31;66042;51.090;-115.340;2023-06-10T06:45:21;17.74;52.72
74540;SHT31;66042;51.090;-115.340;2023-06-10T06:47:49;17.70;52.81
74540;SHT31;66042;51.090;-115.340;2023-06-10T06:50:16;17.65;52.82
74540;SHT31;66042;51.090;-115.340;2023-06-10T06:52:43;17.61;52.80
74540;SHT31;66042;51.090;-115.340;2023-06-10T06:55:11;17.53;53.10
74540;SHT31;66042;51.090;-115.340;2023-06-10T06:57:38;17.48;53.10
74540;SHT31;66042;51.090;-115.340;2023-06-10T07:00:05;17.44;53.43
74540;SHT31;66042;51.090;-115.340;2023-06-10T07:02:34;17.39;53.50
74540;SHT31;66042;51.090;-115.340;2023-06-10T07:05:01;17.34;53.41
74540;SHT31;66042;51.090;-115.340;2023-06-10T07:07:29;17.30;53.54
74540;SHT31;66042;51.090;-115.340;2023-06-10T07:09:56;17.24;53.60
74540;SHT31;66042;51.090;-115.340;2023-06-10T07:12:23;17.20;53.66
74540;SHT31;66042;51.090;-115.340;2023-06-10T07:14:50;17.15;53.76
74540;SHT31;66042;51.090;-115.340;2023-06-10T07:17:17;17.11;53.83
74540;SHT31;66042;51.090;-115.340;2023-06-10T07:19:45;17.08;53.98
74540;SHT31;66042;51.090;-115.340;2023-06-10T07:22:12;17.03;53.94
74540;SHT31;66042;51.090;-115.340;2023-06-10T07:24:40;17.00;53.91
74540;SHT31;66042;51.090;-115.340;2023-06-10T07:27:08;16.97;53.78
74540;SHT31;66042;51.090;-115.340;2023-06-10T07:29:36;16.92;53.51
74540;SHT31;66042;51.090;-115.340;2023-06-10T07:32:03;16.86;53.53
74540;SHT31;66042;51.090;-115.340;2023-06-10T07:34:30;16.84;53.62
74540;SHT31;66042;51.090;-115.340;2023-06-10T07:36:57;16.79;53.70
74540;SHT31;66042;51.090;-115.340;2023-06-10T07:39:24;16.75;53.59
74540;SHT31;66042;51.090;-115.340;2023-06-10T07:41:51;16.72;53.41
74540;SHT31;66042;51.090;-115.340;2023-06-10T07:44:19;16.70;53.40
74540;SHT31;66042;51.090;-115.340;2023-06-10T07:46:46;16.67;53.34
74540;SHT31;66042;51.090;-115.340;2023-06-10T07:49:13;16.62;53.40
74540;SHT31;66042;51.090;-115.340;2023-06-10T07:51:40;16.55;53.41
74540;SHT31;66042;51.090;-115.340;2023-06-10T07:54:07;16.50;53.41
74540;SHT31;66042;51.090;-115.340;2023-06-10T07:56:34;16.46;53.52
74540;SHT31;66042;51.090;-115.340;2023-06-10T07:59:01;16.41;53.54
74540;SHT31;66042;51.090;-115.340;2023-06-10T08:01:29;16.35;53.63
74540;SHT31;66042;51.090;-115.340;2023-06-10T08:03:56;16.31;53.69
74540;SHT31;66042;51.090;-115.340;2023-06-10T08:06:23;16.26;53.70
74540;SHT31;66042;51.090;-115.340;2023-06-10T08:08:51;16.22;53.77
74540;SHT31;66042;51.090;-115.340;2023-06-10T08:11:17;16.19;53.89
74540;SHT31;66042;51.090;-115.340;2023-06-10T08:13:44;16.15;53.95
74540;SHT31;66042;51.090;-115.340;2023-06-10T08:16:11;16.11;54.13
74540;SHT31;66042;51.090;-115.340;2023-06-10T08:18:38;16.07;54.21
74540;SHT31;66042;51.090;-115.340;2023-06-10T08:21:06;16.03;54.27
74540;SHT31;66042;51.090;-115.340;2023-06-10T08:23:33;15.99;54.38
74540;SHT31;66042;51.090;-115.340;2023-06-10T08:26:00;15.95;54.52
74540;SHT31;66042;51.090;-115.340;2023-06-10T08:28:27;15.94;54.54
74540;SHT31;66042;51.090;-115.340;2023-06-10T08:30:55;15.93;54.68
74540;SHT31;66042;51.090;-115.340;2023-06-10T08:33:21;15.91;54.84
74540;SHT31;66042;51.090;-115.340;2023-06-10T08:35:48;15.90;54.99
74540;SHT31;66042;51.090;-115.340;2023-06-10T08:38:15;15.88;55.10
74540;SHT31;66042;51.090;-115.340;2023-06-10T08:40:43;15.87;55.26
74540;SHT31;66042;51.090;-115.340;2023-06-10T08:45:53;15.87;55.35
74540;SHT31;66042;51.090;-115.340;2023-06-10T08:48:29;15.86;55.29
74540;SHT31;66042;51.090;-115.340;2023-06-10T08:50:58;15.86;55.29
74540;SHT31;66042;51.090;-115.340;2023-06-10T08:53:29;15.85;55.38
74540;SHT31;66042;51.090;-115.340;2023-06-10T08:56:02;15.87;55.44
74540;SHT31;66042;51.090;-115.340;2023-06-10T08:58:32;15.86;55.75
74540;SHT31;66042;51.090;-115.340;2023-06-10T09:01:05;15.84;56.16
74540;SHT31;66042;51.090;-115.340;2023-06-10T09:03:34;15.82;56.24
74540;SHT31;66042;51.090;-115.340;2023-06-10T09:06:06;15.83;56.47
74540;SHT31;66042;51.090;-115.340;2023-06-10T09:08:34;15.82;56.48
74540;SHT31;66042;51.090;-115.340;2023-06-10T09:11:02;15.82;56.65
74540;SHT31;66042;51.090;-115.340;2023-06-10T09:13:29;15.81;56.98
74540;SHT31;66042;51.090;-115.340;2023-06-10T09:15:56;15.79;57.09
74540;SHT31;66042;51.090;-115.340;2023-06-10T09:18:27;15.79;57.08
74540;SHT31;66042;51.090;-115.340;2023-06-10T09:20:55;15.79;57.26
74540;SHT31;66042;51.090;-115.340;2023-06-10T09:23:22;15.79;57.28
74540;SHT31;66042;51.090;-115.340;2023-06-10T09:25:59;15.77;57.28
74540;SHT31;66042;51.090;-115.340;2023-06-10T09:28:29;15.78;57.00
74540;SHT31;66042;51.090;-115.340;2023-06-10T09:31:03;15.77;56.86
74540;SHT31;66042;51.090;-115.340;2023-06-10T09:33:32;15.79;57.00
74540;SHT31;66042;51.090;-115.340;2023-06-10T09:36:04;15.79;57.12
74540;SHT31;66042;51.090;-115.340;2023-06-10T09:38:33;15.79;57.29
74540;SHT31;66042;51.090;-115.340;2023-06-10T09:41:02;15.79;57.25
74540;SHT31;66042;51.090;-115.340;2023-06-10T09:43:43;15.79;57.15
74540;SHT31;66042;51.090;-115.340;2023-06-10T09:46:15;15.78;57.18
74540;SHT31;66042;51.090;-115.340;2023-06-10T09:48:43;15.80;57.11
74540;SHT31;66042;51.090;-115.340;2023-06-10T09:51:13;15.81;57.38
74540;SHT31;66042;51.090;-115.340;2023-06-10T09:53:53;15.80;57.34
74540;SHT31;66042;51.090;-115.340;2023-06-10T09:56:20;15.81;57.28
74540;SHT31;66042;51.090;-115.340;2023-06-10T09:58:57;15.80;57.44
74540;SHT31;66042;51.090;-115.340;2023-06-10T10:01:24;15.78;57.31
74540;SHT31;66042;51.090;-115.340;2023-06-10T10:03:52;15.77;57.29
74540;SHT31;66042;51.090;-115.340;2023-06-10T10:06:19;15.76;57.28
74540;SHT31;66042;51.090;-115.340;2023-06-10T10:08:47;15.75;57.32
74540;SHT31;66042;51.090;-115.340;2023-06-10T10:11:17;15.77;57.21
74540;SHT31;66042;51.090;-115.340;2023-06-10T10:13:51;15.77;57.22
74540;SHT31;66042;51.090;-115.340;2023-06-10T10:16:20;15.72;57.48
74540;SHT31;66042;51.090;-115.340;2023-06-10T10:19:15;15.68;57.39
74540;SHT31;66042;51.090;-115.340;2023-06-10T10:21:55;15.68;57.48
74540;SHT31;66042;51.090;-115.340;2023-06-10T10:24:34;15.69;57.48
74540;SHT31;66042;51.090;-115.340;2023-06-10T10:27:20;15.70;57.50
74540;SHT31;66042;51.090;-115.340;2023-06-10T10:29:54;15.68;57.53
74540;SHT31;66042;51.090;-115.340;2023-06-10T10:32:35;15.67;57.58
74540;SHT31;66042;51.090;-115.340;2023-06-10T10:35:16;15.65;57.61
74540;SHT31;66042;51.090;-115.340;2023-06-10T10:37:53;15.62;57.65
74540;SHT31;66042;51.090;-115.340;2023-06-10T10:40:24;15.59;57.71
74540;SHT31;66042;51.090;-115.340;2023-06-10T10:42:55;15.56;57.80
74540;SHT31;66042;51.090;-115.340;2023-06-10T10:45:24;15.55;57.79
74540;SHT31;66042;51.090;-115.340;2023-06-10T10:47:55;15.52;57.75
74540;SHT31;66042;51.090;-115.340;2023-06-10T10:50:22;15.49;57.79
74540;SHT31;66042;51.090;-115.340;2023-06-10T10:52:58;15.47;57.89
74540;SHT31;66042;51.090;-115.340;2023-06-10T10:55:29;15.44;57.94
74540;SHT31;66042;51.090;-115.340;2023-06-10T11:00:35;15.39;58.14
74540;SHT31;66042;51.090;-115.340;2023-06-10T11:05:45;15.39;58.21
74540;SHT31;66042;51.090;-115.340;2023-06-10T11:08:45;15.41;58.23
74540;SHT31;66042;51.090;-115.340;2023-06-10T11:11:02;15.43;58.17
74540;SHT31;66042;51.090;-115.340;2023-06-10T11:16:41;15.47;58.17
74540;SHT31;66042;51.090;-115.340;2023-06-10T11:19:09;15.50;58.13
74540;SHT31;66042;51.090;-115.340;2023-06-10T11:22:01;15.51;58.17
74540;SHT31;66042;51.090;-115.340;2023-06-10T11:24:32;15.51;58.21
74540;SHT31;66042;51.090;-115.340;2023-06-10T11:27:15;15.52;58.18
74540;SHT31;66042;51.090;-115.340;2023-06-10T11:32:31;15.50;58.26
74540;SHT31;66042;51.090;-115.340;2023-06-10T11:35:02;15.50;58.37
74540;SHT31;66042;51.090;-115.340;2023-06-10T11:37:30;15.49;58.33
74540;SHT31;66042;51.090;-115.340;2023-06-10T11:39:58;15.48;58.40
74540;SHT31;66042;51.090;-115.340;2023-06-10T11:42:25;15.47;58.48
74540;SHT31;66042;51.090;-115.340;2023-06-10T11:44:53;15.47;58.56
74540;SHT31;66042;51.090;-115.340;2023-06-10T11:47:20;15.45;58.58
74540;SHT31;66042;51.090;-115.340;2023-06-10T11:49:57;15.45;58.51
74540;SHT31;66042;51.090;-115.340;2023-06-10T11:52:31;15.45;58.59
74540;SHT31;66042;51.090;-115.340;2023-06-10T11:55:03;15.45;58.72
74540;SHT31;66042;51.090;-115.340;2023-06-10T11:57:33;15.44;58.73
74540;SHT31;66042;51.090;-115.340;2023-06-10T12:00:05;15.43;59.05
74540;SHT31;66042;51.090;-115.340;2023-06-10T12:02:34;15.40;59.18
74540;SHT31;66042;51.090;-115.340;2023-06-10T12:05:13;15.39;59.10
74540;SHT31;66042;51.090;-115.340;2023-06-10T12:07:40;15.41;59.07
74540;SHT31;66042;51.090;-115.340;2023-06-10T12:10:07;15.41;59.02
74540;SHT31;66042;51.090;-115.340;2023-06-10T12:12:35;15.41;59.07
74540;SHT31;66042;51.090;-115.340;2023-06-10T12:15:06;15.42;59.06
74540;SHT31;66042;51.090;-115.340;2023-06-10T12:20:07;15.39;59.65
74540;SHT31;66042;51.090;-115.340;2023-06-10T12:22:49;15.35;59.34
74540;SHT31;66042;51.090;-115.340;2023-06-10T12:25:16;15.39;59.30
74540;SHT31;66042;51.090;-115.340;2023-06-10T12:27:56;15.41;59.26
74540;SHT31;66042;51.090;-115.340;2023-06-10T12:30:26;15.47;59.08
74540;SHT31;66042;51.090;-115.340;2023-06-10T12:32:53;15.50;59.20
74540;SHT31;66042;51.090;-115.340;2023-06-10T12:35:27;15.48;59.48
74540;SHT31;66042;51.090;-115.340;2023-06-10T12:37:55;15.50;59.11
74540;SHT31;66042;51.090;-115.340;2023-06-10T12:40:26;15.51;59.35
74540;SHT31;66042;51.090;-115.340;2023-06-10T12:43:05;15.46;59.49
74540;SHT31;66042;51.090;-115.340;2023-06-10T12:45:34;15.43;59.37
74540;SHT31;66042;51.090;-115.340;2023-06-10T12:48:08;15.48;59.14
74540;SHT31;66042;51.090;-115.340;2023-06-10T12:50:38;15.52;59.09
74540;SHT31;66042;51.090;-115.340;2023-06-10T12:53:07;15.55;59.19
74540;SHT31;66042;51.090;-115.340;2023-06-10T12:55:36;15.54;59.29
74540;SHT31;66042;51.090;-115.340;2023-06-10T12:58:04;15.55;58.87
74540;SHT31;66042;51.090;-115.340;2023-06-10T13:00:31;15.58;59.19
74540;SHT31;66042;51.090;-115.340;2023-06-10T13:03:00;15.56;59.04
74540;SHT31;66042;51.090;-115.340;2023-06-10T13:05:31;15.56;59.05
74540;SHT31;66042;51.090;-115.340;2023-06-10T13:07:59;15.59;58.90
74540;SHT31;66042;51.090;-115.340;2023-06-10T13:10:26;15.62;58.79
74540;SHT31;66042;51.090;-115.340;2023-06-10T13:12:52;15.65;58.63
74540;SHT31;66042;51.090;-115.340;2023-06-10T13:15:22;15.66;58.86
74540;SHT31;66042;51.090;-115.340;2023-06-10T13:17:51;15.65;58.82
74540;SHT31;66042;51.090;-115.340;2023-06-10T13:20:19;15.66;58.54
74540;SHT31;66042;51.090;-115.340;2023-06-10T13:22:46;15.67;58.65
74540;SHT31;66042;51.090;-115.340;2023-06-10T13:25:14;15.70;58.51
74540;SHT31;66042;51.090;-115.340;2023-06-10T13:27:41;15.73;58.53
74540;SHT31;66042;51.090;-115.340;2023-06-10T13:30:09;15.76;58.70
74540;SHT31;66042;51.090;-115.340;2023-06-10T13:32:37;15.77;58.82
74540;SHT31;66042;51.090;-115.340;2023-06-10T13:35:04;15.77;58.78
74540;SHT31;66042;51.090;-115.340;2023-06-10T13:37:33;15.80;58.47
74540;SHT31;66042;51.090;-115.340;2023-06-10T13:40:00;15.82;58.65
74540;SHT31;66042;51.090;-115.340;2023-06-10T13:42:28;15.84;58.51
74540;SHT31;66042;51.090;-115.340;2023-06-10T13:44:55;15.87;58.21
74540;SHT31;66042;51.090;-115.340;2023-06-10T13:47:22;15.90;57.99
74540;SHT31;66042;51.090;-115.340;2023-06-10T13:49:50;15.91;58.21
74540;SHT31;66042;51.090;-115.340;2023-06-10T13:52:18;15.92;58.41
74540;SHT31;66042;51.090;-115.340;2023-06-10T13:54:45;15.94;58.52
74540;SHT31;66042;51.090;-115.340;2023-06-10T13:57:12;15.97;58.15
74540;SHT31;66042;51.090;-115.340;2023-06-10T13:59:39;16.01;57.83
74540;SHT31;66042;51.090;-115.340;2023-06-10T14:02:07;16.05;57.35
74540;SHT31;66042;51.090;-115.340;2023-06-10T14:04:37;16.09;57.17
74540;SHT31;66042;51.090;-115.340;2023-06-10T14:07:04;16.13;56.96
74540;SHT31;66042;51.090;-115.340;2023-06-10T14:09:31;16.18;56.72
74540;SHT31;66042;51.090;-115.340;2023-06-10T14:11:58;16.21;56.73
74540;SHT31;66042;51.090;-115.340;2023-06-10T14:14:26;16.25;57.34
74540;SHT31;66042;51.090;-115.340;2023-06-10T14:16:52;16.29;57.89
74540;SHT31;66042;51.090;-115.340;2023-06-10T14:19:20;16.33;58.03
74540;SHT31;66042;51.090;-115.340;2023-06-10T14:21:47;16.38;57.60
74540;SHT31;66042;51.090;-115.340;2023-06-10T14:24:15;16.42;57.50
74540;SHT31;66042;51.090;-115.340;2023-06-10T14:26:42;16.47;57.46
74540;SHT31;66042;51.090;-115.340;2023-06-10T14:29:08;16.51;57.35
74540;SHT31;66042;51.090;-115.340;2023-06-10T14:31:36;16.55;57.38
74540;SHT31;66042;51.090;-115.340;2023-06-10T14:34:03;16.60;57.50
74540;SHT31;66042;51.090;-115.340;2023-06-10T14:36:33;16.65;57.77
74540;SHT31;66042;51.090;-115.340;2023-06-10T14:39:00;16.72;57.55
74540;SHT31;66042;51.090;-115.340;2023-06-10T14:41:27;16.80;56.68
74540;SHT31;66042;51.090;-115.340;2023-06-10T14:43:54;16.88;56.02
74540;SHT31;66042;51.090;-115.340;2023-06-10T14:46:21;16.95;56.59
74540;SHT31;66042;51.090;-115.340;2023-06-10T14:48:48;17.02;57.02
74540;SHT31;66042;51.090;-115.340;2023-06-10T14:51:15;17.09;56.53
74540;SHT31;66042;51.090;-115.340;2023-06-10T14:53:43;17.15;56.11
74540;SHT31;66042;51.090;-115.340;2023-06-10T14:56:11;17.21;55.66
74540;SHT31;66042;51.090;-115.340;2023-06-10T14:58:38;17.24;55.12
74540;SHT31;66042;51.090;-115.340;2023-06-10T15:01:05;17.28;54.79
74540;SHT31;66042;51.090;-115.340;2023-06-10T15:03:32;17.32;54.42
74540;SHT31;66042;51.090;-115.340;2023-06-10T15:05:59;17.38;54.11
74540;SHT31;66042;51.090;-115.340;2023-06-10T15:08:26;17.42;54.14
74540;SHT31;66042;51.090;-115.340;2023-06-10T15:10:56;17.45;53.80
74540;SHT31;66042;51.090;-115.340;2023-06-10T15:13:23;17.49;53.51
74540;SHT31;66042;51.090;-115.340;2023-06-10T15:15:50;17.54;53.81
74540;SHT31;66042;51.090;-115.340;2023-06-10T15:18:17;17.58;53.66
74540;SHT31;66042;51.090;-115.340;2023-06-10T15:20:45;17.64;53.40